createdAt,value
2023-03-02T00:03:05.482Z,102058.67
2023-03-02T00:07:13.588Z,102055.69
2023-03-02T00:11:41.099Z,102056.75
2023-03-02T00:15:49.425Z,102051.99
2023-03-02T00:19:58.999Z,102045.48
2023-03-02T00:24:06.870Z,102040.75
2023-03-02T00:27:54.732Z,102039.34
2023-03-02T00:31:50.850Z,102036.02
2023-03-02T00:35:38.944Z,102032.83
2023-03-02T00:39:27.217Z,102028.09
2023-03-02T00:43:16.523Z,102032.48
2023-03-02T00:46:55.332Z,102034.24
2023-03-02T00:50:42.918Z,102031.23
2023-03-02T00:54:31.070Z,102030.55
2023-03-02T00:58:19.590Z,102029.30
2023-03-02T01:02:07.341Z,102029.63
2023-03-02T01:05:35.998Z,102025.40
2023-03-02T01:08:56.667Z,102023.63
2023-03-02T01:11:40.902Z,102019.64
2023-03-02T01:14:28.577Z,102014.22
2023-03-02T01:17:40.745Z,102013.17
2023-03-02T01:21:15.330Z,102011.05
2023-03-02T01:24:50.519Z,102010.20
2023-03-02T01:27:48.119Z,102000.17
2023-03-02T01:30:57.306Z,101995.42
2023-03-02T01:34:23.084Z,101993.31
2023-03-02T01:37:53.572Z,101987.70
2023-03-02T01:41:10.237Z,101983.83
2023-03-02T01:45:16.116Z,101978.57
2023-03-02T01:48:41.497Z,101972.94
2023-03-02T01:52:29.214Z,101972.41
2023-03-02T01:55:57.645Z,101968.54
2023-03-02T01:58:41.819Z,101966.79
2023-03-02T02:01:54.301Z,101962.57
2023-03-02T02:05:11.353Z,101965.55
2023-03-02T02:07:56.360Z,101962.21
2023-03-02T02:11:10.951Z,101964.33
2023-03-02T02:14:41.725Z,101960.45
2023-03-02T02:18:01.899Z,101958.30
2023-03-02T02:21:42.244Z,101958.47
2023-03-02T02:25:30.395Z,101961.64
2023-03-02T02:28:43.222Z,101966.91
2023-03-02T02:32:31.989Z,101956.55
2023-03-02T02:35:39.134Z,101956.20
2023-03-02T02:38:59.017Z,101953.03
2023-03-02T02:42:38.204Z,101952.48
2023-03-02T02:46:14.436Z,101954.23
2023-03-02T02:50:01.759Z,101955.61
2023-03-02T02:53:24.494Z,101953.35
2023-03-02T02:56:47.139Z,101948.27
2023-03-02T03:00:27.679Z,101955.84
2023-03-02T03:03:33.058Z,101954.95
2023-03-02T03:07:02.430Z,101953.90
2023-03-02T03:10:28.767Z,101952.31
2023-03-02T03:14:07.807Z,101951.45
2023-03-02T03:17:15.370Z,101957.58
2023-03-02T03:20:46.357Z,101958.10
2023-03-02T03:24:14.190Z,101962.44
2023-03-02T03:27:27.872Z,101964.56
2023-03-02T03:31:05.106Z,101965.39
2023-03-02T03:34:36.640Z,101966.80
2023-03-02T03:37:47.781Z,101966.05
2023-03-02T03:41:11.310Z,101966.86
2023-03-02T03:44:02.042Z,101971.61
2023-03-02T03:46:56.674Z,101973.36
2023-03-02T03:50:34.173Z,101968.61
2023-03-02T03:54:21.127Z,101962.48
2023-03-02T03:57:30.319Z,101960.30
2023-03-02T04:00:25.592Z,101958.56
2023-03-02T04:03:51.170Z,101956.28
2023-03-02T04:06:40.944Z,101959.08
2023-03-02T04:09:30.628Z,101956.97
2023-03-02T04:12:37.938Z,101952.77
2023-03-02T04:15:27.744Z,101954.74
2023-03-02T04:18:22.711Z,101949.79
2023-03-02T04:21:47.713Z,101943.02
2023-03-02T04:24:22.352Z,101938.27
2023-03-02T04:27:09.856Z,101942.79
2023-03-02T04:30:37.435Z,101943.33
2023-03-02T04:33:35.437Z,101942.11
2023-03-02T04:36:56.933Z,101944.75
2023-03-02T04:39:46.561Z,101952.14
2023-03-02T04:42:44.732Z,101956.36
2023-03-02T04:46:08.325Z,101956.55
2023-03-02T04:49:48.121Z,101962.72
2023-03-02T04:53:35.851Z,101971.00
2023-03-02T04:57:21.894Z,101978.56
2023-03-02T05:00:55.482Z,101984.36
2023-03-02T05:03:38.938Z,101980.50
2023-03-02T05:06:24.987Z,101983.13
2023-03-02T05:09:29.607Z,101986.64
2023-03-02T05:13:18.708Z,101990.86
2023-03-02T05:15:51.194Z,101997.52
2023-03-02T05:19:15.063Z,101996.30
2023-03-02T05:22:47.774Z,102004.03
2023-03-02T05:26:23.867Z,102010.36
2023-03-02T05:30:04.079Z,102017.20
2023-03-02T05:33:51.499Z,102019.14
2023-03-02T05:36:41.874Z,102024.92
2023-03-02T05:39:58.628Z,102026.31
2023-03-02T05:43:27.660Z,102034.55
2023-03-02T05:46:51.143Z,102039.27
2023-03-02T05:49:53.991Z,102040.65
2023-03-02T05:52:54.966Z,102042.70
2023-03-02T05:55:54.512Z,102042.48
2023-03-02T05:59:24.543Z,102046.66
2023-03-02T06:02:07.520Z,102050.16
2023-03-02T06:05:37.263Z,102050.45
2023-03-02T06:08:56.621Z,102051.42
2023-03-02T06:12:18.675Z,102056.85
2023-03-02T06:15:42.515Z,102056.66
2023-03-02T06:19:04.985Z,102058.23
2023-03-02T06:22:33.353Z,102066.14
2023-03-02T06:26:05.521Z,102071.64
2023-03-02T06:29:46.969Z,102075.98
2023-03-02T06:33:18.424Z,102078.58
2023-03-02T06:36:52.710Z,102074.65
2023-03-02T06:41:02.060Z,102073.16
2023-03-02T06:44:25.245Z,102071.00
2023-03-02T06:48:13.042Z,102070.79
2023-03-02T06:52:01.015Z,102070.60
2023-03-02T06:55:49.618Z,102065.05
2023-03-02T06:59:37.221Z,102076.52
2023-03-02T07:03:18.381Z,102078.04
2023-03-02T07:07:06.119Z,102077.00
2023-03-02T07:10:53.790Z,102077.73
2023-03-02T07:14:31.670Z,102081.79
2023-03-02T07:18:20.190Z,102070.77
2023-03-02T07:22:08.495Z,102063.09
2023-03-02T07:25:50.294Z,102063.59
2023-03-02T07:29:38.039Z,102068.98
2023-03-02T07:33:25.733Z,102068.21
2023-03-02T07:37:13.593Z,102066.95
2023-03-02T07:41:02.834Z,102067.63
2023-03-02T07:44:52.202Z,102064.18
2023-03-02T07:49:17.168Z,102070.01
2023-03-02T07:53:36.976Z,102073.16
2023-03-02T07:57:55.826Z,102073.27
2023-03-02T08:02:23.334Z,102070.31
2023-03-02T08:06:51.279Z,102076.33
2023-03-02T08:11:18.934Z,102078.05
2023-03-02T08:15:30.397Z,102073.17
2023-03-02T08:19:58.132Z,102073.64
2023-03-02T08:24:09.258Z,102070.09
2023-03-02T08:28:13.185Z,102070.13
2023-03-02T08:32:21.582Z,102072.03
2023-03-02T08:36:10.421Z,102070.23
2023-03-02T08:39:58.925Z,102067.51
2023-03-02T08:43:47.565Z,102064.36
2023-03-02T08:47:30.018Z,102060.30
2023-03-02T08:51:17.848Z,102054.03
2023-03-02T08:54:56.230Z,102049.23
2023-03-02T08:58:44.255Z,102045.98
2023-03-02T09:02:32.173Z,102044.89
2023-03-02T09:06:20.035Z,102041.33
2023-03-02T09:09:58.249Z,102039.38
2023-03-02T09:13:19.395Z,102034.08
2023-03-02T09:17:07.201Z,102029.15
2023-03-02T09:20:48.748Z,102025.13
2023-03-02T09:24:36.392Z,102017.48
2023-03-02T09:28:12.782Z,102011.40
2023-03-02T09:32:00.646Z,102004.94
2023-03-02T09:35:32.101Z,102001.29
2023-03-02T09:39:19.309Z,101994.98
2023-03-02T09:43:21.476Z,101991.41
2023-03-02T09:47:06.906Z,101989.27
2023-03-02T09:51:10.005Z,101993.74
2023-03-02T09:54:43.611Z,101993.95
2023-03-02T09:58:31.226Z,101992.55
2023-03-02T10:02:09.578Z,101994.36
2023-03-02T10:05:57.591Z,101994.89
2023-03-02T10:09:45.615Z,102000.59
2023-03-02T10:13:36.044Z,101999.47
2023-03-02T10:17:30.951Z,101992.17
2023-03-02T10:21:13.670Z,101998.33
2023-03-02T10:25:04.469Z,101990.80
2023-03-02T10:28:55.245Z,101990.90
2023-03-02T10:32:49.552Z,101987.92
2023-03-02T10:36:25.438Z,101990.77
2023-03-02T10:40:13.184Z,101987.34
2023-03-02T10:43:55.774Z,101983.13
2023-03-02T10:47:43.424Z,101978.85
2023-03-02T10:51:31.026Z,101978.27
2023-03-02T10:55:18.845Z,101973.48
2023-03-02T10:59:24.377Z,101972.98
2023-03-02T11:03:03.540Z,101968.95
2023-03-02T11:07:00.011Z,101968.20
2023-03-02T11:11:01.121Z,101964.51
2023-03-02T11:14:55.184Z,101957.44
2023-03-02T11:18:41.325Z,101957.65
2023-03-02T11:22:46.953Z,101955.91
2023-03-02T11:26:18.423Z,101947.38
2023-03-02T11:30:17.470Z,101941.56
2023-03-02T11:34:16.703Z,101939.45
2023-03-02T11:38:22.975Z,101941.82
2023-03-02T11:42:28.969Z,101941.02
2023-03-02T11:46:21.712Z,101939.69
2023-03-02T11:50:16.241Z,101933.05
2023-03-02T11:54:04.381Z,101924.05
2023-03-02T11:57:54.455Z,101915.01
2023-03-02T12:01:41.951Z,101905.73
2023-03-02T12:05:29.916Z,101913.70
2023-03-02T12:09:20.392Z,101910.10
2023-03-02T12:13:17.277Z,101907.11
2023-03-02T12:17:22.221Z,101897.80
2023-03-02T12:21:22.183Z,101894.70
2023-03-02T12:25:22.440Z,101895.56
2023-03-02T12:29:12.855Z,101895.30
2023-03-02T12:33:06.530Z,101891.13
2023-03-02T12:37:00.009Z,101889.88
2023-03-02T12:40:48.806Z,101891.30
2023-03-02T12:44:55.586Z,101889.27
2023-03-02T12:48:43.016Z,101886.61
2023-03-02T12:52:36.895Z,101877.10
2023-03-02T12:56:25.711Z,101875.89
2023-03-02T13:00:18.856Z,101871.46
2023-03-02T13:03:54.548Z,101867.42
2023-03-02T13:07:42.658Z,101859.46
2023-03-02T13:11:31.517Z,101857.20
2023-03-02T13:15:20.193Z,101855.06
2023-03-02T13:19:08.651Z,101853.05
2023-03-02T13:22:57.337Z,101854.73
2023-03-02T13:26:53.677Z,101845.60
2023-03-02T13:30:48.652Z,101845.88
2023-03-02T13:34:37.159Z,101838.79
2023-03-02T13:38:34.746Z,101831.80
2023-03-02T13:42:32.312Z,101827.20
2023-03-02T13:46:32.435Z,101823.81
2023-03-02T13:50:32.933Z,101820.09
2023-03-02T13:53:57.440Z,101817.09
2023-03-02T13:57:45.721Z,101806.73
2023-03-02T14:01:35.374Z,101799.31
2023-03-02T14:05:23.643Z,101795.29
2023-03-02T14:09:13.236Z,101790.25
2023-03-02T14:12:28.977Z,101775.42
2023-03-02T14:16:17.029Z,101769.11
2023-03-02T14:20:41.668Z,101759.34
2023-03-02T14:23:47.529Z,101747.30
2023-03-02T14:27:35.726Z,101741.36
2023-03-02T14:31:23.811Z,101741.93
2023-03-02T14:35:09.969Z,101727.64
2023-03-02T14:38:38.489Z,101722.00
2023-03-02T14:42:26.992Z,101715.09
2023-03-02T14:46:04.977Z,101709.61
2023-03-02T14:49:35.704Z,101708.06
2023-03-02T14:53:29.721Z,101699.91
2023-03-02T14:56:54.836Z,101697.84
2023-03-02T15:00:43.928Z,101698.27
2023-03-02T15:04:32.226Z,101693.73
2023-03-02T15:08:44.443Z,101694.49
2023-03-02T15:12:32.682Z,101692.23
2023-03-02T15:16:20.940Z,101684.20
2023-03-02T15:20:09.492Z,101687.48
2023-03-02T15:23:48.762Z,101688.73
2023-03-02T15:27:37.440Z,101681.89
2023-03-02T15:31:18.757Z,101676.31
2023-03-02T15:35:07.466Z,101672.42
2023-03-02T15:38:42.662Z,101672.46
2023-03-02T15:42:31.139Z,101675.02
2023-03-02T15:46:20.582Z,101672.00
2023-03-02T15:50:10.584Z,101676.10
2023-03-02T15:53:59.612Z,101677.73
2023-03-02T15:57:49.038Z,101683.08
2023-03-02T16:01:33.811Z,101686.77
2023-03-02T16:05:24.260Z,101688.42
2023-03-02T16:09:16.048Z,101690.42
2023-03-02T16:13:09.200Z,101693.98
2023-03-02T16:16:50.517Z,101690.10
2023-03-02T16:20:40.112Z,101688.96
2023-03-02T16:24:24.174Z,101685.97
2023-03-02T16:28:00.757Z,101684.13
2023-03-02T16:31:40.215Z,101680.73
2023-03-02T16:35:28.851Z,101676.66
2023-03-02T16:39:20.393Z,101678.46
2023-03-02T16:43:09.819Z,101677.99
2023-03-02T16:47:01.514Z,101683.42
2023-03-02T16:50:41.800Z,101690.33
2023-03-02T16:54:37.358Z,101694.53
2023-03-02T16:58:26.359Z,101689.38
2023-03-02T17:02:22.137Z,101683.09
2023-03-02T17:06:04.662Z,101684.30
2023-03-02T17:09:54.458Z,101685.34
2023-03-02T17:13:42.730Z,101684.77
2023-03-02T17:17:34.541Z,101689.34
2023-03-02T17:21:10.500Z,101698.64
2023-03-02T17:24:58.213Z,101697.91
2023-03-02T17:28:43.916Z,101697.17
2023-03-02T17:32:32.893Z,101695.55
2023-03-02T17:36:23.797Z,101696.74
2023-03-02T17:39:40.255Z,101688.83
2023-03-02T17:47:27.225Z,101702.16
2023-03-02T17:50:55.890Z,101702.53
2023-03-02T17:54:45.371Z,101701.23
2023-03-02T17:58:44.182Z,101696.34
2023-03-02T18:01:48.851Z,101688.80
2023-03-02T18:05:37.352Z,101690.81
2023-03-02T18:10:07.768Z,101688.58
2023-03-02T18:14:36.457Z,101688.11
2023-03-02T18:19:05.670Z,101685.70
2023-03-02T18:23:34.119Z,101685.67
2023-03-02T18:28:03.243Z,101685.21
2023-03-02T18:33:22.199Z,101692.42
2023-03-02T18:37:05.162Z,101686.83
2023-03-02T18:41:34.438Z,101687.70
2023-03-02T18:46:06.025Z,101682.86
2023-03-02T18:50:34.466Z,101687.56
2023-03-02T18:55:08.923Z,101687.43
2023-03-02T18:59:40.261Z,101686.41
2023-03-02T19:04:09.528Z,101687.05
2023-03-02T19:23:22.652Z,101693.20
2023-03-02T19:27:01.527Z,101694.05
2023-03-02T19:30:41.760Z,101691.14
2023-03-02T19:35:16.083Z,101687.30
2023-03-02T19:50:45.986Z,101681.69
2023-03-02T19:54:06.471Z,101686.06
2023-03-02T19:57:51.448Z,101682.27
2023-03-02T20:01:27.358Z,101681.25
2023-03-02T20:04:50.112Z,101678.49
2023-03-02T20:08:16.208Z,101677.92
2023-03-02T20:11:33.037Z,101679.36
2023-03-02T20:15:15.708Z,101679.69
2023-03-02T20:23:34.675Z,101679.86
2023-03-02T20:28:07.737Z,101685.83
2023-03-02T20:36:56.777Z,101679.23
2023-03-02T20:41:26.157Z,101675.13
2023-03-02T20:46:02.091Z,101677.06
2023-03-02T20:50:34.528Z,101681.97
2023-03-02T20:55:04.608Z,101686.41
2023-03-02T21:02:50.469Z,101682.27
2023-03-02T21:07:21.145Z,101697.80
2023-03-02T21:12:02.011Z,101695.05
2023-03-02T21:16:31.697Z,101697.66
2023-03-02T21:21:01.728Z,101696.27
2023-03-02T21:25:32.288Z,101700.89
2023-03-02T21:34:11.801Z,101695.12
2023-03-02T21:38:26.403Z,101703.70
2023-03-02T21:42:56.465Z,101703.68
2023-03-02T21:47:27.537Z,101696.85
2023-03-02T21:52:00.200Z,101694.33
2023-03-02T21:56:11.302Z,101689.75
2023-03-02T22:00:22.090Z,101688.73
2023-03-02T22:04:52.634Z,101682.39
2023-03-02T22:09:29.661Z,101673.98
2023-03-02T22:14:05.974Z,101666.80
2023-03-02T22:18:35.639Z,101657.88
2023-03-02T22:22:45.168Z,101665.54
2023-03-02T22:37:19.607Z,101670.41
2023-03-02T22:41:28.148Z,101674.21
2023-03-02T22:45:00.191Z,101670.03
2023-03-02T22:48:51.914Z,101667.64
2023-03-02T22:52:42.038Z,101673.77
2023-03-02T22:56:37.789Z,101672.86
2023-03-02T23:00:26.888Z,101671.70
2023-03-02T23:04:12.129Z,101666.93
2023-03-02T23:08:01.787Z,101670.08
2023-03-02T23:11:52.379Z,101669.99
2023-03-02T23:15:56.429Z,101664.89
2023-03-02T23:19:44.540Z,101649.02
2023-03-02T23:23:33.708Z,101642.14
2023-03-02T23:27:16.811Z,101635.07
2023-03-02T23:31:12.028Z,101627.60
2023-03-02T23:35:01.629Z,101616.30
2023-03-02T23:38:54.306Z,101614.07
2023-03-02T23:42:43.710Z,101613.50
2023-03-02T23:46:31.101Z,101607.75
2023-03-02T23:50:21.027Z,101598.69
2023-03-02T23:54:14.836Z,101595.53
2023-03-02T23:58:10.406Z,101591.33
